Stratford, New Hampshire
Current Conditions -  °F | °C
As of 12:52 AM on Friday 28 Nov 2014 (Local Time) from KBML Reporting Station
Overcast Overcast  
Wind Chill: 17°   Ceiling: 11000
Heat Index: 17°   Visibility: 10mi
Dew Point: 14°   Wind: 0mph
Humidity: 88%   Direction: NA
Pressure: 29.96"   Gusts: NA
Location:  44.7189°N, 71.4659°W
Report Text: KBML 280552Z AUTO 00000KT 10SM OVC110 M08/M10 A2996 RMK AO2 SLP166 T10831100 11044 21083 58010
Loading
Personal Weather Stations






























Interactive Weather Map New forecast layout! Learn more

10-Day Weather Forecast

Advertisements
Track Severe Weather on mobile